Weather reports worldwide

Advertisment
Rolo, Italy (16143): temperature & dewpoint: 17.03.2019 10:00:00 - 23.03.2019 10:00:00 (CET)Rolo, Italy (16143): wind speed: 17.03.2019 10:00:00 - 23.03.2019 10:00:00 (CET)Rolo, Italy (16143): wind direction: 17.03.2019 10:00:00 - 23.03.2019 10:00:00 (CET)Rolo, Italy (16143): reduced air pressure: 17.03.2019 10:00:00 - 23.03.2019 10:00:00 (CET)Rolo, Italy (16143): precipitation: 17.03.2019 10:00:00 - 23.03.2019 10:00:00 (CET)
Date & Time tt [°C] td [°C] ff [km/h] ff [kn] dd ppp [hPa] rr [mm]
23.03.2019 10:00:00 - - - - - - -
23.03.2019 09:00:00 11,9 0,6 13 7 W 1026,7 0,0
23.03.2019 08:00:00 8,2 -0,3 10 6 W 1026,7 0,0
23.03.2019 07:00:00 5,8 -1,4 10 5 W 1026,6 0,0
23.03.2019 06:00:00 5,6 -1,1 9 5 WSW 1026,3 0,0
23.03.2019 05:00:00 5,6 -1,1 8 4 WSW 1026,2 0,0
23.03.2019 04:00:00 6,2 -0,8 9 5 WSW 1026,6 0,0
23.03.2019 03:00:00 7,1 -0,6 14 7 WSW 1026,5 0,0
23.03.2019 02:00:00 6,2 -0,3 10 5 W 1027,2 0,0
23.03.2019 01:00:00 5,9 -0,6 9 5 W 1027,5 0,0
23.03.2019 00:00:00 7,6 -0,4 8 5 W 1027,6 0,0
22.03.2019 23:00:00 8,2 -0,3 11 6 WSW 1027,7 0,0
22.03.2019 22:00:00 8,5 0,0 3 1 SW 1027,9 0,0
22.03.2019 21:00:00 9,0 -0,1 3 2 SW 1027,8 0,0
22.03.2019 20:00:00 10,3 -0,5 3 2 SSW 1027,5 0,0
22.03.2019 19:00:00 13,5 -1,3 4 2 S 1027,4 0,0
22.03.2019 18:00:00 17,3 -0,4 2 1 S 1027,3 0,0
22.03.2019 17:00:00 18,8 -1,1 3 1 W 1027,5 0,0
22.03.2019 16:00:00 18,8 -1,1 2 1 N 1027,9 0,0
22.03.2019 15:00:00 18,7 -0,7 3 2 WSW 1028,8 0,0
22.03.2019 14:00:00 18,0 -1,3 5 3 W 1029,4 0,0
22.03.2019 13:00:00 17,5 -0,3 3 1 SE 1030,3 0,0
22.03.2019 12:00:00 16,5 0,6 6 3 W 1030,9 0,0
22.03.2019 11:00:00 14,8 1,0 8 4 W 1031,3 0,0
22.03.2019 10:00:00 11,9 0,6 9 5 W 1031,8 0,0
22.03.2019 09:00:00 9,2 0,1 9 5 W 1031,7 0,0
22.03.2019 08:00:00 5,8 -1,6 10 6 W 1031,8 0,0
22.03.2019 07:00:00 3,5 -2,1 10 5 WSW 1031,3 0,0
22.03.2019 06:00:00 2,5 -2,2 9 5 WSW 1031,0 0,0
22.03.2019 05:00:00 3,0 -2,1 8 4 W 1030,9 0,0
22.03.2019 04:00:00 4,0 -2,0 10 5 WSW 1031,0 0,0
22.03.2019 03:00:00 4,3 -1,9 10 5 SW 1031,2 0,0
22.03.2019 02:00:00 4,7 -1,7 8 5 WSW 1031,6 0,0
22.03.2019 01:00:00 4,2 -2,0 4 2 WSW 1031,9 0,0
22.03.2019 00:00:00 4,7 -1,7 4 2 WSW 1031,9 0,0
21.03.2019 23:00:00 4,7 -1,7 4 2 W 1031,9 0,0
21.03.2019 22:00:00 5,0 -2,1 1 0 SSW 1031,6 0,0
21.03.2019 21:00:00 7,2 -1,5 4 2 SSW 1031,3 0,0
21.03.2019 20:00:00 9,1 -1,9 4 2 SSW 1031,1 0,0
21.03.2019 19:00:00 12,0 -2,6 5 3 S 1030,6 0,0
21.03.2019 18:00:00 14,2 -2,7 3 2 SSE 1030,3 0,0
21.03.2019 17:00:00 15,2 -2,3 5 3 E 1030,3 0,0
21.03.2019 16:00:00 15,2 -1,8 6 4 NE 1030,8 0,0
21.03.2019 15:00:00 15,2 -1,8 11 6 E 1031,5 0,0
21.03.2019 14:00:00 14,9 -1,7 12 6 ENE 1032,2 0,0
21.03.2019 13:00:00 14,5 -2,0 13 7 ENE 1032,9 0,0
21.03.2019 12:00:00 13,8 -3,0 16 9 NNE 1033,5 0,0
21.03.2019 11:00:00 12,6 -1,4 10 6 NNE 1034,2 0,0
21.03.2019 10:00:00 10,7 -2,7 9 5 NNE 1034,5 0,0
21.03.2019 09:00:00 8,0 -1,3 8 5 W 1034,3 0,0
21.03.2019 08:00:00 3,7 -2,9 8 4 W 1034,3 0,0
21.03.2019 07:00:00 -0,3 -4,2 5 3 WSW 1033,8 0,0
21.03.2019 06:00:00 0,4 -4,4 4 2 WSW 1033,2 0,0
21.03.2019 05:00:00 1,9 -3,6 1 0 SW 1032,8 0,0
21.03.2019 04:00:00 4,1 -3,9 6 4 N 1032,4 0,0
21.03.2019 03:00:00 3,6 -3,7 10 6 N 1032,5 0,0
21.03.2019 02:00:00 4,3 -3,2 13 7 NNE 1033,0 0,0
21.03.2019 01:00:00 3,6 -3,0 11 6 N 1033,0 0,0
21.03.2019 00:00:00 4,2 -3,3 9 5 N 1032,6 0,0
20.03.2019 23:00:00 4,0 -3,8 7 4 N 1032,5 0,0
20.03.2019 22:00:00 3,4 -3,0 4 2 NNE 1032,0 0,0
20.03.2019 21:00:00 4,8 -3,5 4 2 NNE 1031,7 0,0
20.03.2019 20:00:00 7,0 -3,8 2 1 E 1031,3 0,0
20.03.2019 19:00:00 9,0 -3,9 11 6 E 1030,7 0,0
20.03.2019 18:00:00 11,6 -3,7 13 7 E 1030,2 0,0
20.03.2019 17:00:00 12,8 -3,9 15 8 E 1029,7 0,0
20.03.2019 16:00:00 13,4 -4,3 16 9 E 1029,6 0,0
20.03.2019 15:00:00 13,3 -4,4 13 7 ENE 1029,8 0,0
20.03.2019 14:00:00 13,5 -3,7 18 10 NE 1030,2 0,0
20.03.2019 13:00:00 13,6 -3,7 26 14 ENE 1030,8 0,0
20.03.2019 12:00:00 13,0 -3,7 29 15 ENE 1031,2 0,0
20.03.2019 11:00:00 12,6 -2,5 31 17 ENE 1031,5 0,0
20.03.2019 10:00:00 11,4 -0,1 27 15 ENE 1031,4 0,0
20.03.2019 09:00:00 9,8 0,7 21 11 ENE 1031,1 0,0
20.03.2019 08:00:00 7,0 0,2 13 7 NE 1030,6 0,0
20.03.2019 07:00:00 4,0 -1,2 8 5 NNE 1030,0 0,0
20.03.2019 06:00:00 3,6 -1,4 12 6 NNE 1029,2 0,0
20.03.2019 05:00:00 4,4 -0,8 10 5 N 1028,8 0,0
20.03.2019 04:00:00 3,7 -1,1 9 5 NNE 1028,5 0,0
20.03.2019 03:00:00 4,5 -0,9 9 5 N 1028,4 0,0
20.03.2019 02:00:00 5,1 -0,5 10 5 N 1028,5 0,0
20.03.2019 01:00:00 5,7 -0,6 11 6 N 1028,2 0,0
20.03.2019 00:00:00 4,5 -1,5 8 4 NNW 1027,9 0,0
19.03.2019 23:00:00 4,8 -1,4 5 3 NNW 1027,7 0,0
19.03.2019 22:00:00 4,4 -1,8 5 3 NW 1027,2 0,0
19.03.2019 21:00:00 4,8 -2,3 4 2 N 1026,5 0,0
19.03.2019 20:00:00 7,7 -2,6 13 7 E 1025,7 0,0
19.03.2019 19:00:00 8,6 -2,4 13 7 E 1025,1 0,0
19.03.2019 18:00:00 10,8 -3,0 14 8 E 1024,2 0,0
19.03.2019 17:00:00 12,0 -3,0 22 12 E 1023,5 0,0
19.03.2019 16:00:00 12,5 -2,9 26 14 E 1023,2 0,0
19.03.2019 15:00:00 13,2 -2,3 22 12 ENE 1023,1 0,0
19.03.2019 14:00:00 13,7 -1,5 22 12 ENE 1023,1 0,0
19.03.2019 13:00:00 13,2 -1,6 22 12 ENE 1023,5 0,0
19.03.2019 12:00:00 12,3 -0,9 25 13 ENE 1023,8 0,0
19.03.2019 11:00:00 11,8 0,6 18 10 ENE 1023,8 0,0
19.03.2019 10:00:00 10,5 1,8 6 4 NNE 1023,8 0,0
19.03.2019 09:00:00 6,2 2,6 5 3 NNW 1023,6 0,0
19.03.2019 08:00:00 3,5 1,4 4 2 WNW 1023,0 0,0
19.03.2019 07:00:00 3,9 1,3 6 4 WNW 1022,2 0,0
19.03.2019 06:00:00 3,8 1,3 5 3 WSW 1021,6 0,0
19.03.2019 05:00:00 3,3 1,0 6 3 W 1021,2 0,0
19.03.2019 04:00:00 3,2 0,8 6 3 W 1020,8 0,0
19.03.2019 03:00:00 3,6 0,8 5 3 W 1020,8 0,0
19.03.2019 02:00:00 4,5 1,5 7 4 WNW 1021,0 0,0
19.03.2019 01:00:00 4,6 1,6 5 3 NNW 1021,1 0,0
19.03.2019 00:00:00 4,1 1,1 7 4 NNW 1020,9 0,0
18.03.2019 23:00:00 3,3 0,2 3 2 NE 1020,7 0,0
18.03.2019 22:00:00 5,5 1,0 4 2 ENE 1020,4 0,0
18.03.2019 21:00:00 6,3 1,2 8 4 E 1019,7 0,0
18.03.2019 20:00:00 6,4 1,5 9 5 ESE 1019,0 0,0
18.03.2019 19:00:00 8,5 2,3 13 7 E 1018,5 0,0
18.03.2019 18:00:00 10,2 2,5 24 13 E 1017,4 0,0
18.03.2019 17:00:00 11,1 3,6 23 12 ESE 1016,3 0,0
18.03.2019 16:00:00 11,7 4,0 24 13 E 1015,6 0,0
18.03.2019 15:00:00 12,3 4,5 24 13 E 1015,2 0,0
18.03.2019 14:00:00 12,7 5,1 23 12 E 1015,3 0,0
18.03.2019 13:00:00 12,6 4,8 20 11 E 1015,1 0,0
18.03.2019 12:00:00 13,1 5,3 9 5 NE 1014,6 0,0
18.03.2019 11:00:00 12,8 4,0 9 5 NNW 1014,0 0,0
18.03.2019 10:00:00 10,7 5,5 18 10 W 1013,1 0,0
18.03.2019 09:00:00 9,2 5,9 13 7 WSW 1012,4 0,0
18.03.2019 08:00:00 8,8 5,7 14 7 WSW 1011,6 0,0
18.03.2019 07:00:00 8,7 6,3 9 5 SSW 1010,5 1,2
18.03.2019 06:00:00 9,6 6,3 19 11 W 1010,2 0,2
18.03.2019 05:00:00 8,7 4,7 12 6 SSW 1008,6 0,0
18.03.2019 04:00:00 9,4 5,4 8 5 SE 1008,2 0,0
18.03.2019 03:00:00 9,4 6,1 10 6 SSE 1008,9 0,0
18.03.2019 02:00:00 9,3 5,8 7 4 SSE 1009,6 0,0
18.03.2019 01:00:00 9,2 5,4 6 3 SSE 1010,0 0,0
18.03.2019 00:00:00 11,6 5,5 6 3 S 1010,2 0,0
17.03.2019 23:00:00 11,5 6,4 3 2 SW 1010,8 0,0
17.03.2019 22:00:00 11,9 6,6 3 1 NW 1011,2 0,0
17.03.2019 21:00:00 13,0 6,8 1 1 WNW 1011,0 0,0
17.03.2019 20:00:00 14,4 7,2 8 5 W 1011,1 0,0
17.03.2019 19:00:00 14,5 7,5 4 2 NNW 1011,3 0,0
17.03.2019 18:00:00 16,1 7,1 3 2 N 1011,5 0,0
17.03.2019 17:00:00 16,8 6,9 4 2 N 1011,7 0,0
17.03.2019 16:00:00 16,9 6,7 6 3 NNW 1012,2 0,0
17.03.2019 15:00:00 17,3 6,5 8 4 NW 1013,0 0,0
17.03.2019 14:00:00 18,1 7,2 10 5 NNW 1013,3 0,0
17.03.2019 13:00:00 17,7 8,8 4 2 ENE 1014,4 0,0
17.03.2019 12:00:00 15,9 10,2 3 2 ESE 1015,5 0,0
17.03.2019 11:00:00 10,8 9,2 2 1 NE 1016,3 0,0
17.03.2019 10:00:00 9,5 7,9 8 4 SSE 1016,7 0,0

tt = temperature
td = dewpoint
ff = wind speed
dd = wind direction
ppp = reduced air pressure
rr = precipitation

Next stations